Main page
METAR-TAF:

METAR-TAF

Airports :

Gwadar International Airport

Gwadar, Pakistan

latitude: 25-13-59N, longitude: 062-19-46E, elevation: 29 m

METAR: missing

Time: 04:09 (23:09 UTC)

Forecast

The report was made 6 hours and 9 minutes ago, at 17:00 UTC
Forecast valid from 14 at 18 UTC to 15 at 18 UTC
Wind 5 kt from the South/Southwest
Visibility: 2500 m
Broken clouds at a height of 2500 ft
smoke
Temporary
from 15 at 00 UTC to 15 at 04 UTC
Wind 3 kt from variable directions
Visibility: 2000 m
Broken clouds at a height of 2000 ft
mist
From 15 at 0500 UTC
Wind 10 kt from the South
Visibility: 4000 m
Scattered clouds at a height of 3000 ft
haze,

TAF: OPGD 141700Z 1418/1518 21005KT 2500 FU BKN025 TEMPO 1500/1504 VRB03KT 2000 BR BKN020 FM150500 18010KT 4000 HZ SCT030

Weather observations and forecasts of more than 4000 airports (METAR and TAF reports).

The available stations are represented by yellow and red dots on the map.

Hover mouse over dot to see the name of the station.

Then click to see weather observations and forecasts.

To change the map : click on the green buttons with a black cross to zoom in, on the green button with a dash to zoom out, or on the green arrows for adjacent maps.


METAR-TAF: